Time;durP1;ratioP1;P1;durP2;ratioP2;P2;SDS_P1;SDS_P2;PMS_P1;PMS_P2;Temp;Humidity;BMP_temperature;BMP_pressure;BME280_temperature;BME280_humidity;BME280_pressure;Samples;Min_cycle;Max_cycle;Signal;HPM_P1;HPM_P2
2022/09/18 00:01:18;;;;;;;13.23;2.60;;;;;;;;;;4947532;28;20233;-76
2022/09/18 00:03:46;;;;;;;9.40;2.37;;;;;;;;;;4950656;28;20230;-75
2022/09/18 00:06:13;;;;;;;9.57;2.20;;;;;;;;;;4969235;28;20561;-75
2022/09/18 00:08:39;;;;;;;9.13;2.20;;;;;;;;;;4945107;28;20261;-76
2022/09/18 00:11:08;;;;;;;12.23;2.27;;;;;;;;;;4964229;28;20266;-75
2022/09/18 00:13:36;;;;;;;9.13;2.10;;;;;;;;;;4951357;28;20699;-75
2022/09/18 00:16:03;;;;;;;11.50;2.70;;;;;;;;;;4957716;28;20301;-76
2022/09/18 00:18:33;;;;;;;9.50;2.50;;;;;;;;;;4944996;28;20308;-76
2022/09/18 00:21:06;;;;;;;9.27;2.03;;;;;;;;;;4976153;28;20615;-75
2022/09/18 00:23:31;;;;;;;12.73;2.90;;;;;;;;;;4967469;28;20229;-75
2022/09/18 00:25:59;;;;;;;8.90;2.03;;;;;;;;;;4948984;28;20305;-76
2022/09/18 00:28:27;;;;;;;13.87;2.70;;;;;;;;;;4976825;28;20222;-75
2022/09/18 00:30:55;;;;;;;12.73;2.60;;;;;;;;;;4963802;28;20237;-75
2022/09/18 00:33:21;;;;;;;13.87;3.07;;;;;;;;;;4944963;28;20230;-74
2022/09/18 00:35:48;;;;;;;12.23;2.27;;;;;;;;;;4960485;28;20253;-75
2022/09/18 00:38:14;;;;;;;13.20;2.07;;;;;;;;;;4955408;28;20226;-75
2022/09/18 00:40:42;;;;;;;6.97;2.17;;;;;;;;;;4958007;28;20235;-76
2022/09/18 00:43:19;;;;;;;11.23;2.50;;;;;;;;;;4972948;28;20227;-75
2022/09/18 00:46:00;;;;;;;11.10;2.10;;;;;;;;;;4969110;28;20267;-74
2022/09/18 00:48:33;;;;;;;12.10;2.50;;;;;;;;;;4936736;28;20594;-74
2022/09/18 00:51:01;;;;;;;11.37;2.50;;;;;;;;;;4935569;28;20715;-73
2022/09/18 00:53:29;;;;;;;11.87;2.33;;;;;;;;;;4935723;28;21164;-75
2022/09/18 00:55:55;;;;;;;4.37;1.90;;;;;;;;;;4946138;28;20708;-74
2022/09/18 00:58:21;;;;;;;10.23;1.97;;;;;;;;;;4947021;28;20288;-73
2022/09/18 01:00:48;;;;;;;11.23;2.43;;;;;;;;;;4960934;28;20234;-75
2022/09/18 01:03:16;;;;;;;6.43;1.97;;;;;;;;;;4956364;28;20233;-74
2022/09/18 01:05:54;;;;;;;7.73;2.00;;;;;;;;;;4956718;28;20227;-73
2022/09/18 01:08:41;;;;;;;8.43;2.03;;;;;;;;;;4947389;28;20223;-74
2022/09/18 01:11:13;;;;;;;7.17;2.00;;;;;;;;;;4980856;28;20229;-75
2022/09/18 01:13:51;;;;;;;12.20;2.40;;;;;;;;;;4976689;28;20288;-75
2022/09/18 01:16:21;;;;;;;8.53;2.43;;;;;;;;;;4975851;28;20225;-74
2022/09/18 01:19:05;;;;;;;11.27;2.30;;;;;;;;;;4961544;28;20287;-75
2022/09/18 01:21:35;;;;;;;9.30;2.10;;;;;;;;;;4973887;28;20312;-76
2022/09/18 01:24:17;;;;;;;9.67;2.17;;;;;;;;;;4950044;28;20226;-77
2022/09/18 01:26:53;;;;;;;10.00;2.27;;;;;;;;;;4936167;28;20309;-74
2022/09/18 01:29:30;;;;;;;10.10;2.47;;;;;;;;;;4981642;28;20236;-75
2022/09/18 01:32:16;;;;;;;14.60;2.20;;;;;;;;;;4953708;28;20225;-76
2022/09/18 01:34:48;;;;;;;11.10;2.10;;;;;;;;;;4978878;28;20229;-74
2022/09/18 01:37:20;;;;;;;10.33;1.97;;;;;;;;;;4963097;28;20233;-75
2022/09/18 01:39:59;;;;;;;6.73;1.70;;;;;;;;;;4955122;28;20237;-74
2022/09/18 01:42:25;;;;;;;13.80;2.17;;;;;;;;;;4949086;28;20329;-75
2022/09/18 01:44:54;;;;;;;5.87;1.90;;;;;;;;;;4951419;28;20236;-76
2022/09/18 01:47:20;;;;;;;10.63;2.13;;;;;;;;;;4950655;28;20228;-76
2022/09/18 01:49:52;;;;;;;5.93;1.60;;;;;;;;;;4952320;28;20625;-76
2022/09/18 01:52:24;;;;;;;9.57;2.57;;;;;;;;;;4956554;28;20234;-74
2022/09/18 01:54:50;;;;;;;5.90;1.63;;;;;;;;;;4926399;28;20230;-74
2022/09/18 01:57:24;;;;;;;8.67;2.00;;;;;;;;;;4947729;28;20231;-76
2022/09/18 01:59:56;;;;;;;7.77;1.93;;;;;;;;;;4947446;28;20237;-75
2022/09/18 02:02:44;;;;;;;8.00;1.80;;;;;;;;;;4955221;28;20217;-75
2022/09/18 02:05:17;;;;;;;7.97;1.83;;;;;;;;;;4992882;28;20221;-75
2022/09/18 02:08:04;;;;;;;14.13;2.20;;;;;;;;;;4957684;28;20245;-75
2022/09/18 02:10:32;;;;;;;10.87;1.97;;;;;;;;;;4977038;28;20223;-76
2022/09/18 02:13:00;;;;;;;10.60;2.27;;;;;;;;;;4960146;28;20745;-75
2022/09/18 02:15:33;;;;;;;8.80;1.97;;;;;;;;;;4952121;28;20218;-75
2022/09/18 02:18:17;;;;;;;9.97;2.23;;;;;;;;;;4960667;28;20226;-74
2022/09/18 02:20:43;;;;;;;11.73;2.10;;;;;;;;;;4938537;28;20338;-75
2022/09/18 02:23:09;;;;;;;10.17;2.10;;;;;;;;;;4951712;28;20233;-75
2022/09/18 02:25:57;;;;;;;9.07;1.97;;;;;;;;;;4959121;28;20225;-75
2022/09/18 02:28:25;;;;;;;8.13;1.70;;;;;;;;;;4954222;28;20309;-74
2022/09/18 02:30:52;;;;;;;12.77;2.20;;;;;;;;;;4944405;28;20771;-75
2022/09/18 02:33:23;;;;;;;6.93;1.57;;;;;;;;;;4948987;28;20233;-74
2022/09/18 02:35:52;;;;;;;11.30;2.13;;;;;;;;;;4944898;28;20249;-75
2022/09/18 02:38:43;;;;;;;8.17;1.53;;;;;;;;;;4935578;28;20225;-74
2022/09/18 02:41:36;;;;;;;8.37;1.93;;;;;;;;;;4970285;28;20229;-73
2022/09/18 02:44:45;;;;;;;6.47;1.50;;;;;;;;;;4964089;28;20218;-77
2022/09/18 02:47:38;;;;;;;7.27;2.07;;;;;;;;;;4937361;28;20719;-73
2022/09/18 02:50:13;;;;;;;7.07;1.57;;;;;;;;;;4964709;28;20261;-72
2022/09/18 02:53:12;;;;;;;6.60;1.70;;;;;;;;;;4982981;28;20317;-75
2022/09/18 02:55:43;;;;;;;8.07;2.00;;;;;;;;;;4953648;28;21183;-73
2022/09/18 02:58:14;;;;;;;4.53;1.50;;;;;;;;;;4952319;28;20227;-73
2022/09/18 03:00:43;;;;;;;6.77;1.90;;;;;;;;;;4940067;28;20231;-75
2022/09/18 03:03:14;;;;;;;8.70;1.80;;;;;;;;;;4925626;28;20305;-76
2022/09/18 03:05:45;;;;;;;9.17;1.80;;;;;;;;;;4933124;28;20226;-74
2022/09/18 03:08:18;;;;;;;4.37;1.60;;;;;;;;;;4957862;28;20234;-74
2022/09/18 03:10:46;;;;;;;8.93;2.23;;;;;;;;;;4964081;28;20223;-75
2022/09/18 03:13:16;;;;;;;6.43;1.57;;;;;;;;;;4944502;28;20213;-74
2022/09/18 03:15:44;;;;;;;6.37;1.53;;;;;;;;;;4957454;28;20223;-75
2022/09/18 03:18:13;;;;;;;10.07;2.13;;;;;;;;;;4969615;28;20237;-74
2022/09/18 03:20:42;;;;;;;9.23;1.93;;;;;;;;;;4942786;28;20590;-74
2022/09/18 03:23:09;;;;;;;6.50;1.87;;;;;;;;;;4949631;28;20269;-75
2022/09/18 03:25:37;;;;;;;8.93;1.90;;;;;;;;;;4949387;28;20757;-73
2022/09/18 03:28:03;;;;;;;4.83;1.43;;;;;;;;;;4943532;28;20226;-75
2022/09/18 03:30:36;;;;;;;7.10;1.63;;;;;;;;;;4954156;28;20230;-76
2022/09/18 03:33:07;;;;;;;3.70;1.33;;;;;;;;;;4949347;28;20330;-74
2022/09/18 03:35:37;;;;;;;7.77;1.90;;;;;;;;;;4933435;28;20283;-76
2022/09/18 03:38:02;;;;;;;7.80;1.87;;;;;;;;;;4943085;28;20313;-76
2022/09/18 03:40:34;;;;;;;9.80;1.97;;;;;;;;;;4948182;28;20233;-76
2022/09/18 03:43:06;;;;;;;5.17;1.70;;;;;;;;;;4949872;28;20304;-75
2022/09/18 03:45:33;;;;;;;7.97;1.70;;;;;;;;;;4976590;28;20227;-75
2022/09/18 03:48:00;;;;;;;6.13;1.60;;;;;;;;;;4959750;28;20256;-75
2022/09/18 03:50:27;;;;;;;6.53;1.60;;;;;;;;;;4967315;28;20604;-75
2022/09/18 03:52:55;;;;;;;5.20;1.63;;;;;;;;;;4963194;28;20233;-74
2022/09/18 03:55:43;;;;;;;5.80;1.50;;;;;;;;;;4934997;28;20231;-74
2022/09/18 03:58:27;;;;;;;7.40;1.37;;;;;;;;;;4964278;28;20229;-75
2022/09/18 04:01:26;;;;;;;3.97;1.40;;;;;;;;;;4964087;28;20704;-75
2022/09/18 04:04:13;;;;;;;6.93;1.60;;;;;;;;;;4964273;28;20659;-75
2022/09/18 04:07:01;;;;;;;5.20;1.67;;;;;;;;;;4979839;28;20222;-75
2022/09/18 04:09:45;;;;;;;6.87;1.43;;;;;;;;;;4947753;28;20232;-75
2022/09/18 04:12:11;;;;;;;5.43;1.80;;;;;;;;;;4971201;28;20238;-76
2022/09/18 04:14:37;;;;;;;8.17;1.30;;;;;;;;;;4948895;28;20314;-75
2022/09/18 04:17:03;;;;;;;6.67;1.53;;;;;;;;;;4949856;28;20288;-76
2022/09/18 04:19:34;;;;;;;7.33;1.67;;;;;;;;;;4944473;28;20241;-75
2022/09/18 04:22:04;;;;;;;7.23;1.73;;;;;;;;;;4937581;28;20716;-75
2022/09/18 04:24:30;;;;;;;7.23;1.60;;;;;;;;;;4953067;28;20255;-73
2022/09/18 04:27:01;;;;;;;5.77;1.30;;;;;;;;;;4970968;28;20222;-73
2022/09/18 04:29:26;;;;;;;4.97;1.40;;;;;;;;;;4945557;28;20242;-75
2022/09/18 04:31:54;;;;;;;5.67;1.57;;;;;;;;;;4950093;28;20238;-76
2022/09/18 04:34:21;;;;;;;3.80;1.43;;;;;;;;;;4952771;28;20222;-76
2022/09/18 04:36:51;;;;;;;5.97;1.47;;;;;;;;;;4953995;28;20225;-75
2022/09/18 04:39:20;;;;;;;8.40;1.70;;;;;;;;;;4960722;28;20734;-73
2022/09/18 04:41:46;;;;;;;4.67;1.30;;;;;;;;;;4960524;28;20226;-76
2022/09/18 04:44:12;;;;;;;9.93;1.57;;;;;;;;;;4943886;28;20719;-76
2022/09/18 04:46:38;;;;;;;4.40;1.57;;;;;;;;;;4966108;28;20238;-76
2022/09/18 04:49:04;;;;;;;6.03;1.60;;;;;;;;;;4961618;28;20225;-75
2022/09/18 04:51:32;;;;;;;5.93;1.67;;;;;;;;;;4959759;28;20233;-75
2022/09/18 04:54:00;;;;;;;11.20;2.13;;;;;;;;;;4946781;28;20241;-76
2022/09/18 04:56:25;;;;;;;4.87;1.80;;;;;;;;;;4975376;28;20236;-76
2022/09/18 04:58:51;;;;;;;6.27;1.20;;;;;;;;;;4957021;28;20226;-76
2022/09/18 05:01:20;;;;;;;7.30;1.53;;;;;;;;;;4949519;28;20251;-75
2022/09/18 05:03:48;;;;;;;7.10;1.50;;;;;;;;;;4951709;28;20226;-73
2022/09/18 05:06:23;;;;;;;10.27;1.67;;;;;;;;;;4923752;28;20226;-75
2022/09/18 05:08:48;;;;;;;9.90;2.00;;;;;;;;;;4948505;28;20358;-76
2022/09/18 05:11:17;;;;;;;5.13;1.40;;;;;;;;;;4945112;28;20321;-77
2022/09/18 05:13:43;;;;;;;6.83;1.57;;;;;;;;;;4949730;28;20232;-76
2022/09/18 05:16:18;;;;;;;7.30;1.37;;;;;;;;;;4946001;28;20655;-77
2022/09/18 05:19:01;;;;;;;9.33;1.80;;;;;;;;;;4964482;28;20214;-76
2022/09/18 05:21:26;;;;;;;8.00;1.67;;;;;;;;;;4959358;28;20241;-76
2022/09/18 05:23:52;;;;;;;5.93;1.63;;;;;;;;;;4949292;28;20236;-75
2022/09/18 05:26:17;;;;;;;5.50;1.23;;;;;;;;;;4956968;28;20704;-77
2022/09/18 05:28:43;;;;;;;8.93;1.77;;;;;;;;;;4948486;28;20226;-76
2022/09/18 05:31:09;;;;;;;8.67;1.83;;;;;;;;;;4942428;28;20237;-76
2022/09/18 05:33:40;;;;;;;6.10;1.87;;;;;;;;;;4951249;28;20283;-75
2022/09/18 05:36:06;;;;;;;5.70;1.80;;;;;;;;;;4942980;28;20226;-76
2022/09/18 05:38:36;;;;;;;6.63;1.60;;;;;;;;;;4934444;28;20225;-76
2022/09/18 05:41:04;;;;;;;9.70;1.97;;;;;;;;;;4961632;28;20301;-76
2022/09/18 05:43:32;;;;;;;8.97;1.83;;;;;;;;;;4937356;28;20738;-76
2022/09/18 05:45:59;;;;;;;9.37;1.83;;;;;;;;;;4953184;28;20221;-76
2022/09/18 05:48:37;;;;;;;11.00;1.80;;;;;;;;;;4963379;28;20221;-75
2022/09/18 05:51:04;;;;;;;12.23;1.93;;;;;;;;;;4973467;28;20272;-77
2022/09/18 05:53:30;;;;;;;8.70;1.97;;;;;;;;;;4961543;28;20880;-76
2022/09/18 05:56:15;;;;;;;9.90;1.90;;;;;;;;;;4957907;28;20232;-75
2022/09/18 05:58:44;;;;;;;7.13;1.60;;;;;;;;;;4979300;28;20249;-73
2022/09/18 06:01:13;;;;;;;6.53;1.80;;;;;;;;;;4968983;28;20314;-74
2022/09/18 06:04:31;;;;;;;7.30;1.60;;;;;;;;;;4949034;28;20217;-76
2022/09/18 06:07:01;;;;;;;8.20;1.57;;;;;;;;;;4953988;28;20218;-73
2022/09/18 06:09:27;;;;;;;10.43;2.07;;;;;;;;;;4957905;28;20234;-72
2022/09/18 06:11:52;;;;;;;7.63;2.30;;;;;;;;;;4970875;28;20233;-72
2022/09/18 06:14:23;;;;;;;6.30;1.67;;;;;;;;;;4917522;28;20228;-73
2022/09/18 06:16:49;;;;;;;4.30;1.73;;;;;;;;;;4926307;28;20234;-73
2022/09/18 06:19:15;;;;;;;6.67;1.73;;;;;;;;;;4959467;28;20229;-72
2022/09/18 06:21:43;;;;;;;6.97;1.80;;;;;;;;;;4947114;28;20733;-72
2022/09/18 06:24:12;;;;;;;5.40;1.73;;;;;;;;;;4964127;28;20794;-72
2022/09/18 06:27:00;;;;;;;9.60;2.03;;;;;;;;;;4973475;28;20253;-72
2022/09/18 06:29:26;;;;;;;6.37;1.90;;;;;;;;;;4959016;28;20304;-72
2022/09/18 06:31:57;;;;;;;4.33;1.47;;;;;;;;;;4938932;28;20246;-72
2022/09/18 06:34:28;;;;;;;7.07;1.70;;;;;;;;;;4967945;28;20217;-73
2022/09/18 06:36:59;;;;;;;7.43;1.87;;;;;;;;;;4957878;28;20231;-73
2022/09/18 06:39:47;;;;;;;9.50;1.73;;;;;;;;;;4970105;28;20248;-72
2022/09/18 06:42:32;;;;;;;4.23;1.80;;;;;;;;;;4957688;28;20217;-73
2022/09/18 06:45:10;;;;;;;5.43;1.27;;;;;;;;;;4948012;28;20228;-73
2022/09/18 06:47:37;;;;;;;7.23;1.97;;;;;;;;;;4939290;28;20222;-73
2022/09/18 06:50:02;;;;;;;5.80;1.80;;;;;;;;;;4937638;28;20723;-74
2022/09/18 06:52:28;;;;;;;6.00;1.83;;;;;;;;;;4926243;28;20616;-73
2022/09/18 06:54:56;;;;;;;7.53;2.00;;;;;;;;;;4927485;28;20313;-73
2022/09/18 06:57:33;;;;;;;4.63;1.87;;;;;;;;;;4951111;28;20213;-73
2022/09/18 06:59:59;;;;;;;6.90;1.70;;;;;;;;;;4952657;28;20649;-74
2022/09/18 07:02:26;;;;;;;7.67;1.97;;;;;;;;;;4936192;28;20233;-75
2022/09/18 07:04:56;;;;;;;5.33;1.73;;;;;;;;;;4946569;28;20228;-70
2022/09/18 07:07:22;;;;;;;4.37;2.23;;;;;;;;;;4951837;28;20226;-74
2022/09/18 07:09:49;;;;;;;6.63;2.30;;;;;;;;;;4938322;28;20221;-73
2022/09/18 07:12:39;;;;;;;8.77;2.03;;;;;;;;;;4941123;28;20665;-73
2022/09/18 07:15:06;;;;;;;4.37;1.50;;;;;;;;;;4934411;28;20219;-73
2022/09/18 07:17:32;;;;;;;6.23;1.70;;;;;;;;;;4936330;28;20233;-73
2022/09/18 07:20:00;;;;;;;8.27;1.30;;;;;;;;;;4941123;28;20313;-73
2022/09/18 07:22:38;;;;;;;5.47;1.80;;;;;;;;;;4948797;28;20309;-73
2022/09/18 07:25:09;;;;;;;7.50;1.70;;;;;;;;;;4937497;28;20219;-74
2022/09/18 07:27:39;;;;;;;4.20;1.50;;;;;;;;;;4948965;28;20218;-73
2022/09/18 07:30:06;;;;;;;5.00;1.30;;;;;;;;;;4928296;28;20234;-73
2022/09/18 07:32:34;;;;;;;5.17;1.77;;;;;;;;;;4973834;28;20277;-73
2022/09/18 07:35:02;;;;;;;5.93;1.87;;;;;;;;;;4935321;28;20707;-72
2022/09/18 07:37:32;;;;;;;5.43;1.50;;;;;;;;;;4957286;28;20222;-73
2022/09/18 07:40:18;;;;;;;4.70;1.70;;;;;;;;;;4947452;28;20232;-73
2022/09/18 07:43:00;;;;;;;6.10;1.70;;;;;;;;;;4955239;28;20888;-73
2022/09/18 07:45:27;;;;;;;5.03;1.40;;;;;;;;;;4944895;28;20289;-72
2022/09/18 07:47:54;;;;;;;5.17;1.80;;;;;;;;;;4949727;28;20307;-73
2022/09/18 07:50:21;;;;;;;5.43;1.47;;;;;;;;;;4934329;28;20222;-73
2022/09/18 07:52:49;;;;;;;5.47;1.57;;;;;;;;;;4968937;28;20365;-73
2022/09/18 07:55:20;;;;;;;5.00;1.30;;;;;;;;;;4956356;28;20222;-73
2022/09/18 07:57:57;;;;;;;4.43;1.67;;;;;;;;;;4953380;28;20264;-73
2022/09/18 08:00:42;;;;;;;7.20;1.50;;;;;;;;;;4962638;28;20650;-73
2022/09/18 08:03:10;;;;;;;5.30;1.73;;;;;;;;;;4975417;28;20225;-73
2022/09/18 08:06:05;;;;;;;7.23;1.50;;;;;;;;;;4951341;28;20226;-73
2022/09/18 08:08:35;;;;;;;4.93;1.47;;;;;;;;;;4956370;28;20219;-73
2022/09/18 08:11:13;;;;;;;5.00;1.40;;;;;;;;;;4950671;28;20224;-73
2022/09/18 08:14:15;;;;;;;6.43;1.87;;;;;;;;;;4955293;28;20262;-73
2022/09/18 08:16:43;;;;;;;6.97;1.90;;;;;;;;;;4957726;28;20233;-73
2022/09/18 08:19:29;;;;;;;4.33;1.57;;;;;;;;;;4952580;28;20228;-72
2022/09/18 08:22:06;;;;;;;4.17;1.50;;;;;;;;;;4962451;28;20238;-72
2022/09/18 08:24:32;;;;;;;3.83;1.57;;;;;;;;;;4963321;28;20217;-73
2022/09/18 08:27:02;;;;;;;4.67;1.83;;;;;;;;;;4956170;28;20223;-72
2022/09/18 08:29:29;;;;;;;3.07;1.47;;;;;;;;;;4957216;28;20242;-73
2022/09/18 08:32:02;;;;;;;5.80;1.60;;;;;;;;;;4955097;28;20230;-72
2022/09/18 08:34:28;;;;;;;5.20;1.57;;;;;;;;;;4943174;28;20230;-72
2022/09/18 08:36:54;;;;;;;3.97;1.30;;;;;;;;;;4952570;28;20217;-73
2022/09/18 08:39:24;;;;;;;4.37;1.23;;;;;;;;;;4942400;28;20221;-75
2022/09/18 08:42:28;;;;;;;3.23;1.10;;;;;;;;;;4955008;28;20253;-73
2022/09/18 08:44:59;;;;;;;2.37;0.93;;;;;;;;;;4955393;28;20256;-73
2022/09/18 08:47:27;;;;;;;5.00;0.87;;;;;;;;;;4947189;28;20230;-73
2022/09/18 08:50:00;;;;;;;4.20;1.00;;;;;;;;;;4951153;28;20650;-72
2022/09/18 08:52:31;;;;;;;2.27;0.90;;;;;;;;;;4968854;28;20230;-73
2022/09/18 08:55:23;;;;;;;4.93;1.10;;;;;;;;;;4960419;28;20210;-73
2022/09/18 08:58:04;;;;;;;1.87;0.97;;;;;;;;;;4962545;28;20222;-73
2022/09/18 09:00:40;;;;;;;195.40;17.73;;;;;;;;;;4959445;28;20774;-74
2022/09/18 09:03:50;;;;;;;2.13;1.00;;;;;;;;;;4951218;28;20214;-74
2022/09/18 09:06:21;;;;;;;3.13;0.70;;;;;;;;;;4957788;28;20272;-73
2022/09/18 09:08:48;;;;;;;5.40;1.23;;;;;;;;;;4977165;28;20226;-74
2022/09/18 09:11:21;;;;;;;4.73;1.10;;;;;;;;;;4960680;28;20874;-74
2022/09/18 09:13:53;;;;;;;1.57;0.97;;;;;;;;;;4957394;28;20240;-73
2022/09/18 09:16:28;;;;;;;3.30;0.93;;;;;;;;;;4964273;28;20279;-74
2022/09/18 09:19:19;;;;;;;3.13;0.93;;;;;;;;;;4967871;28;20275;-74
2022/09/18 09:22:03;;;;;;;1.77;0.80;;;;;;;;;;4949082;28;20226;-74
2022/09/18 09:24:30;;;;;;;1.80;0.80;;;;;;;;;;4935895;28;20223;-76
2022/09/18 09:27:27;;;;;;;2.70;0.80;;;;;;;;;;4964711;28;20226;-73
2022/09/18 09:30:28;;;;;;;1.50;0.73;;;;;;;;;;4953666;28;20226;-73
2022/09/18 09:33:23;;;;;;;2.97;0.70;;;;;;;;;;4929022;28;20743;-72
2022/09/18 09:36:12;;;;;;;1.13;0.70;;;;;;;;;;4963799;28;20230;-73
2022/09/18 09:38:58;;;;;;;1.43;0.80;;;;;;;;;;4953487;28;20230;-73
2022/09/18 09:41:30;;;;;;;2.20;0.83;;;;;;;;;;4971937;28;20225;-72
2022/09/18 09:44:03;;;;;;;2.60;0.93;;;;;;;;;;4971276;28;20241;-73
2022/09/18 09:47:04;;;;;;;3.93;1.17;;;;;;;;;;4964067;28;20336;-74
2022/09/18 09:49:39;;;;;;;4.00;1.10;;;;;;;;;;4964168;28;20712;-75
2022/09/18 09:52:26;;;;;;;2.57;0.90;;;;;;;;;;4960212;28;20240;-73
2022/09/18 09:54:58;;;;;;;2.33;0.80;;;;;;;;;;4949574;28;20600;-73
2022/09/18 09:57:55;;;;;;;3.97;1.13;;;;;;;;;;4968337;28;20221;-75
2022/09/18 10:00:23;;;;;;;3.37;1.10;;;;;;;;;;4950312;28;20320;-74
2022/09/18 10:03:09;;;;;;;5.70;1.13;;;;;;;;;;4976097;28;20229;-73
2022/09/18 10:05:52;;;;;;;2.60;1.03;;;;;;;;;;4968934;28;20356;-74
2022/09/18 10:08:21;;;;;;;3.07;1.10;;;;;;;;;;4951833;28;20243;-75
2022/09/18 10:10:59;;;;;;;2.70;1.07;;;;;;;;;;4944626;28;20730;-75
2022/09/18 10:13:34;;;;;;;3.13;1.20;;;;;;;;;;4936195;28;20825;-75
2022/09/18 10:16:23;;;;;;;1.27;0.90;;;;;;;;;;4966079;28;20226;-74
2022/09/18 10:18:50;;;;;;;4.93;1.20;;;;;;;;;;4954076;28;20281;-74
2022/09/18 10:21:21;;;;;;;3.60;0.97;;;;;;;;;;4949900;28;20219;-75
2022/09/18 10:23:52;;;;;;;2.40;0.90;;;;;;;;;;4968311;28;20221;-74
2022/09/18 10:26:28;;;;;;;2.67;0.97;;;;;;;;;;4933382;28;20214;-72
2022/09/18 10:28:54;;;;;;;2.00;0.90;;;;;;;;;;4955803;28;20220;-74
2022/09/18 10:31:22;;;;;;;1.87;0.97;;;;;;;;;;4949922;28;20219;-73
2022/09/18 10:33:51;;;;;;;3.10;0.87;;;;;;;;;;4928388;28;20606;-73
2022/09/18 10:36:32;;;;;;;1.67;0.97;;;;;;;;;;4962185;28;20229;-75
2022/09/18 10:39:14;;;;;;;2.97;1.00;;;;;;;;;;4979401;28;20210;-74
2022/09/18 10:41:42;;;;;;;2.13;0.90;;;;;;;;;;4947229;28;20229;-75
2022/09/18 10:44:35;;;;;;;3.07;1.10;;;;;;;;;;4935083;28;20703;-73
2022/09/18 10:47:10;;;;;;;3.77;1.23;;;;;;;;;;4956577;28;20313;-74
2022/09/18 10:49:48;;;;;;;1.77;0.83;;;;;;;;;;4956326;28;20225;-74
2022/09/18 10:52:34;;;;;;;3.23;0.87;;;;;;;;;;4944404;28;20226;-74
2022/09/18 10:55:32;;;;;;;2.00;0.80;;;;;;;;;;4970226;28;20790;-74
2022/09/18 10:58:12;;;;;;;3.23;0.90;;;;;;;;;;4958239;28;20218;-74
2022/09/18 11:00:44;;;;;;;1.93;0.73;;;;;;;;;;4951169;28;20241;-75
2022/09/18 11:03:16;;;;;;;2.27;0.90;;;;;;;;;;4976356;28;20214;-75
2022/09/18 11:05:57;;;;;;;0.87;0.60;;;;;;;;;;4957292;28;20229;-74
2022/09/18 11:08:29;;;;;;;3.50;0.87;;;;;;;;;;4958337;28;20253;-76
2022/09/18 11:11:01;;;;;;;1.60;0.70;;;;;;;;;;4935986;28;20795;-75
2022/09/18 11:13:29;;;;;;;1.60;0.67;;;;;;;;;;4945245;28;20308;-75
2022/09/18 11:15:56;;;;;;;3.53;0.70;;;;;;;;;;4940778;28;20218;-76
2022/09/18 11:18:25;;;;;;;1.77;1.03;;;;;;;;;;4955130;28;20239;-74
2022/09/18 11:20:51;;;;;;;2.00;0.80;;;;;;;;;;4928441;28;20239;-75
2022/09/18 11:23:21;;;;;;;2.10;0.80;;;;;;;;;;4960940;28;20693;-76
2022/09/18 11:25:46;;;;;;;2.33;1.00;;;;;;;;;;4978567;28;20222;-75
2022/09/18 11:28:27;;;;;;;1.40;0.97;;;;;;;;;;4961204;28;20229;-74
2022/09/18 11:31:18;;;;;;;1.63;0.80;;;;;;;;;;4960610;28;20245;-74
2022/09/18 11:33:55;;;;;;;1.40;0.70;;;;;;;;;;4920036;28;20313;-75
2022/09/18 11:36:30;;;;;;;2.13;0.90;;;;;;;;;;4940459;28;20225;-75
2022/09/18 11:38:58;;;;;;;1.60;0.90;;;;;;;;;;4934967;28;20264;-75
2022/09/18 11:41:34;;;;;;;2.10;0.70;;;;;;;;;;4961531;28;20263;-73
2022/09/18 11:44:02;;;;;;;4.13;0.97;;;;;;;;;;4944789;28;21114;-74
2022/09/18 11:46:57;;;;;;;1.93;0.83;;;;;;;;;;4962083;28;20276;-74
2022/09/18 11:49:28;;;;;;;2.27;1.20;;;;;;;;;;4949492;28;20692;-76
2022/09/18 11:52:12;;;;;;;1.23;0.53;;;;;;;;;;4934278;28;20733;-74
2022/09/18 11:55:12;;;;;;;1.80;0.83;;;;;;;;;;4953032;28;20272;-74
2022/09/18 11:57:51;;;;;;;2.60;1.10;;;;;;;;;;4964679;28;20226;-77
2022/09/18 12:00:22;;;;;;;1.67;0.83;;;;;;;;;;4935185;28;20226;-76
2022/09/18 12:03:17;;;;;;;1.43;0.90;;;;;;;;;;4968283;28;20232;-75
2022/09/18 12:06:01;;;;;;;4.60;0.80;;;;;;;;;;4963791;28;20278;-77
2022/09/18 12:08:40;;;;;;;0.97;0.60;;;;;;;;;;4983403;28;20281;-73
2022/09/18 12:11:33;;;;;;;2.87;1.10;;;;;;;;;;4946183;28;20308;-73
2022/09/18 12:14:04;;;;;;;2.53;1.07;;;;;;;;;;4941902;28;20236;-73
2022/09/18 12:16:53;;;;;;;3.93;0.90;;;;;;;;;;4978728;28;20722;-75
2022/09/18 12:19:28;;;;;;;1.33;0.70;;;;;;;;;;4939394;28;20253;-76
2022/09/18 12:22:11;;;;;;;2.27;0.80;;;;;;;;;;4957305;28;20218;-77
2022/09/18 12:24:39;;;;;;;2.27;0.80;;;;;;;;;;4952485;28;20312;-76
2022/09/18 12:27:26;;;;;;;2.17;0.90;;;;;;;;;;4957874;28;20223;-78
2022/09/18 12:29:52;;;;;;;4.87;1.23;;;;;;;;;;4962150;28;20230;-74
2022/09/18 12:32:33;;;;;;;1.43;0.80;;;;;;;;;;4973748;28;20279;-74
2022/09/18 12:35:05;;;;;;;3.60;0.77;;;;;;;;;;4974566;28;20229;-74
2022/09/18 12:37:38;;;;;;;4.87;1.27;;;;;;;;;;4975015;28;20275;-74
2022/09/18 12:40:09;;;;;;;3.27;0.80;;;;;;;;;;4973665;28;20229;-74
2022/09/18 12:42:44;;;;;;;1.57;0.90;;;;;;;;;;4976583;28;20230;-75
2022/09/18 12:45:25;;;;;;;2.63;0.97;;;;;;;;;;4965987;28;20233;-76
2022/09/18 12:48:02;;;;;;;3.03;1.00;;;;;;;;;;4965968;28;20709;-77
2022/09/18 12:50:58;;;;;;;3.83;1.20;;;;;;;;;;4957209;28;20233;-73
2022/09/18 12:53:44;;;;;;;3.17;1.20;;;;;;;;;;4947250;28;20222;-76
2022/09/18 12:56:09;;;;;;;3.30;1.20;;;;;;;;;;4970263;28;20221;-75
2022/09/18 12:58:44;;;;;;;6.80;1.27;;;;;;;;;;4958574;28;20646;-73
2022/09/18 13:01:25;;;;;;;2.83;0.90;;;;;;;;;;4977132;28;20226;-73
2022/09/18 13:03:52;;;;;;;2.70;0.90;;;;;;;;;;4967267;28;20230;-73
2022/09/18 13:06:22;;;;;;;2.33;1.07;;;;;;;;;;4955561;28;20248;-72
2022/09/18 13:08:52;;;;;;;1.33;0.83;;;;;;;;;;4946315;28;20230;-74
2022/09/18 13:11:31;;;;;;;2.17;1.00;;;;;;;;;;4954894;28;20222;-73
2022/09/18 13:14:13;;;;;;;3.47;1.10;;;;;;;;;;4946129;28;20291;-73
2022/09/18 13:17:11;;;;;;;2.70;1.00;;;;;;;;;;4974402;28;20285;-71
2022/09/18 13:19:42;;;;;;;3.37;1.20;;;;;;;;;;4956607;28;20229;-73
2022/09/18 13:22:16;;;;;;;2.50;0.97;;;;;;;;;;4956270;28;20237;-72
2022/09/18 13:24:42;;;;;;;4.20;1.23;;;;;;;;;;4953932;28;20234;-73
2022/09/18 13:27:12;;;;;;;2.70;1.27;;;;;;;;;;4923629;28;20225;-73
2022/09/18 13:29:57;;;;;;;3.40;1.30;;;;;;;;;;4946916;28;20258;-74
2022/09/18 13:32:36;;;;;;;5.00;1.20;;;;;;;;;;4929948;28;20238;-73
2022/09/18 13:35:03;;;;;;;1.80;0.90;;;;;;;;;;4938145;28;20260;-73
2022/09/18 13:37:31;;;;;;;4.13;1.20;;;;;;;;;;4952858;28;20210;-73
2022/09/18 13:39:58;;;;;;;3.03;1.17;;;;;;;;;;4941456;28;20230;-74
2022/09/18 13:42:34;;;;;;;3.13;1.37;;;;;;;;;;4950390;28;20258;-75
2022/09/18 13:45:24;;;;;;;2.47;0.97;;;;;;;;;;4934836;28;20258;-74
2022/09/18 13:48:06;;;;;;;2.33;1.00;;;;;;;;;;4953833;28;20598;-75
2022/09/18 13:50:35;;;;;;;3.50;1.20;;;;;;;;;;4970090;28;20233;-75
2022/09/18 13:53:02;;;;;;;5.60;1.13;;;;;;;;;;4945568;28;20230;-76
2022/09/18 13:55:36;;;;;;;4.20;1.30;;;;;;;;;;4936793;28;20332;-76
2022/09/18 13:58:35;;;;;;;3.00;0.97;;;;;;;;;;4926905;28;20312;-73
2022/09/18 14:01:08;;;;;;;3.63;1.10;;;;;;;;;;4964614;28;20572;-74
2022/09/18 14:06:40;;;;;;;2.17;1.07;;;;;;;;;;4995251;28;20299;-80
2022/09/18 14:09:51;;;;;;;1.07;0.90;;;;;;;;;;4979534;28;20291;-79
2022/09/18 14:12:20;;;;;;;2.67;0.90;;;;;;;;;;4954707;28;20221;-78
2022/09/18 14:15:08;;;;;;;2.17;1.00;;;;;;;;;;4964655;28;20786;-80
2022/09/18 14:17:37;;;;;;;2.50;0.90;;;;;;;;;;4968253;28;20241;-79
2022/09/18 14:20:19;;;;;;;2.60;1.00;;;;;;;;;;4968951;28;20690;-79
2022/09/18 14:22:49;;;;;;;3.30;1.10;;;;;;;;;;4982290;28;20240;-79
2022/09/18 14:25:38;;;;;;;4.47;1.07;;;;;;;;;;4981920;28;20226;-80
2022/09/18 14:28:04;;;;;;;4.13;0.90;;;;;;;;;;4986457;28;20237;-80
2022/09/18 14:30:30;;;;;;;3.17;1.13;;;;;;;;;;4966037;28;20209;-77
2022/09/18 14:33:25;;;;;;;4.50;1.00;;;;;;;;;;4948326;28;20230;-79
2022/09/18 14:36:03;;;;;;;2.07;1.00;;;;;;;;;;4958395;28;20233;-77
2022/09/18 14:38:38;;;;;;;4.10;1.33;;;;;;;;;;4983614;28;20232;-79
2022/09/18 14:41:51;;;;;;;5.83;1.27;;;;;;;;;;4996435;28;20228;-79
2022/09/18 14:44:17;;;;;;;3.00;1.10;;;;;;;;;;4946921;28;20222;-79
2022/09/18 14:46:56;;;;;;;5.20;0.93;;;;;;;;;;4978417;28;20237;-77
2022/09/18 14:49:35;;;;;;;2.83;1.00;;;;;;;;;;4982419;28;20752;-81
2022/09/18 14:52:01;;;;;;;6.13;1.33;;;;;;;;;;4959239;28;20225;-81
2022/09/18 14:54:27;;;;;;;2.37;1.13;;;;;;;;;;4961586;28;20214;-81
2022/09/18 14:56:57;;;;;;;19.90;15.47;;;;;;;;;;4967291;28;20237;-78
2022/09/18 14:59:23;;;;;;;20.73;15.07;;;;;;;;;;4960855;28;20237;-79
2022/09/18 15:01:49;;;;;;;4.83;3.43;;;;;;;;;;4965205;28;20588;-79
2022/09/18 15:04:16;;;;;;;7.23;1.63;;;;;;;;;;4965245;28;20226;-80
2022/09/18 15:06:48;;;;;;;1.37;0.90;;;;;;;;;;4965833;28;20234;-81
2022/09/18 15:09:15;;;;;;;2.70;1.97;;;;;;;;;;4970554;28;20296;-79
2022/09/18 15:11:42;;;;;;;4.73;3.73;;;;;;;;;;5000273;28;20237;-79
2022/09/18 15:14:28;;;;;;;2.93;1.57;;;;;;;;;;4979285;28;20225;-81
2022/09/18 15:16:55;;;;;;;3.33;1.00;;;;;;;;;;4965302;28;20735;-79
2022/09/18 15:19:20;;;;;;;2.90;1.10;;;;;;;;;;4968229;28;20221;-84
2022/09/18 15:21:48;;;;;;;6.63;1.20;;;;;;;;;;4988324;28;20232;-81
2022/09/18 15:24:15;;;;;;;1.53;0.90;;;;;;;;;;4946443;28;20238;-84
2022/09/18 15:26:47;;;;;;;3.80;1.20;;;;;;;;;;4970288;28;20232;-82